Time,TemperatureF,DewpointF,PressureIn,WindDirection,WindDirectionDegrees,WindSpeedMPH,WindSpeedGustMPH,Humidity,HourlyPrecipIn,Conditions,Clouds,dailyrainin,SoftwareType,DateUTC
2013-03-27 00:00:00,46.5,44.9,29.84,East,97,1.0,1.0,94,0.00,,,0.00,Wunderground v.1.15,2013-03-27 07:00:00,
2013-03-27 00:10:00,46.8,45.2,29.84,East,97,1.0,2.0,94,0.00,,,0.00,Wunderground v.1.15,2013-03-27 07:10:00,
2013-03-27 00:19:00,46.8,45.2,29.84,NE,51,1.0,1.0,94,0.00,,,0.00,Wunderground v.1.15,2013-03-27 07:19:00,
2013-03-27 00:25:00,46.8,45.2,29.83,NE,51,0.0,3.0,94,0.00,,,0.00,Wunderground v.1.15,2013-03-27 07:25:00,
2013-03-27 00:34:00,47.1,45.2,29.83,NE,51,1.0,3.0,93,0.00,,,0.00,Wunderground v.1.15,2013-03-27 07:34:00,
2013-03-27 00:40:00,47.1,45.2,29.83,NE,51,0.0,3.0,93,0.00,,,0.00,Wunderground v.1.15,2013-03-27 07:40:00,
2013-03-27 00:50:00,47.3,45.4,29.83,NE,51,0.0,3.0,93,0.00,,,0.00,Wunderground v.1.15,2013-03-27 07:50:00,
2013-03-27 00:59:00,47.3,45.4,29.82,NE,51,0.0,3.0,93,0.00,,,0.00,Wunderground v.1.15,2013-03-27 07:59:00,
2013-03-27 01:05:00,47.4,45.5,29.82,NE,51,0.0,3.0,93,0.00,,,0.00,Wunderground v.1.15,2013-03-27 08:05:00,
2013-03-27 01:14:00,47.4,45.2,29.82,NE,51,0.0,3.0,92,0.00,,,0.00,Wunderground v.1.15,2013-03-27 08:14:00,
2013-03-27 01:20:00,47.3,45.1,29.82,NE,51,0.0,1.0,92,0.00,,,0.00,Wunderground v.1.15,2013-03-27 08:20:00,
2013-03-27 01:29:00,46.8,44.3,29.82,NE,51,0.0,1.0,91,0.00,,,0.00,Wunderground v.1.15,2013-03-27 08:29:00,
2013-03-27 01:35:00,46.5,44.0,29.82,NE,51,0.0,1.0,91,0.00,,,0.00,Wunderground v.1.15,2013-03-27 08:35:00,
2013-03-27 01:45:00,46.0,43.5,29.82,NE,51,0.0,1.0,91,0.00,,,0.00,Wunderground v.1.15,2013-03-27 08:45:00,
2013-03-27 01:54:00,45.5,43.0,29.82,NE,51,0.0,0.0,91,0.00,,,0.00,Wunderground v.1.15,2013-03-27 08:54:00,
2013-03-27 02:00:00,45.4,43.2,29.83,NE,51,0.0,0.0,92,0.00,,,0.00,Wunderground v.1.15,2013-03-27 09:00:00,
2013-03-27 02:09:00,44.9,42.7,29.83,NE,51,0.0,0.0,92,0.00,,,0.00,Wunderground v.1.15,2013-03-27 09:09:00,
2013-03-27 02:15:00,44.8,42.6,29.83,NE,51,0.0,0.0,92,0.00,,,0.00,Wunderground v.1.15,2013-03-27 09:15:00,
2013-03-27 02:25:00,44.5,42.6,29.83,NE,51,0.0,0.0,93,0.00,,,0.00,Wunderground v.1.15,2013-03-27 09:25:00,
2013-03-27 02:34:00,44.3,42.4,29.83,NE,51,0.0,0.0,93,0.00,,,0.00,Wunderground v.1.15,2013-03-27 09:34:00,
2013-03-27 02:40:00,44.3,42.4,29.83,NE,51,0.0,0.0,93,0.00,,,0.00,Wunderground v.1.15,2013-03-27 09:40:00,
2013-03-27 02:49:00,44.5,42.9,29.83,NE,51,0.0,0.0,94,0.00,,,0.00,Wunderground v.1.15,2013-03-27 09:49:00,
2013-03-27 02:55:00,44.5,42.9,29.82,NE,51,0.0,0.0,94,0.00,,,0.00,Wunderground v.1.15,2013-03-27 09:55:00,
2013-03-27 03:04:00,44.2,42.6,29.82,NE,51,0.0,0.0,94,0.00,,,0.00,Wunderground v.1.15,2013-03-27 10:04:00,
2013-03-27 03:10:00,43.9,42.3,29.82,NE,51,0.0,0.0,94,0.00,,,0.00,Wunderground v.1.15,2013-03-27 10:10:00,
2013-03-27 03:20:00,43.9,42.6,29.82,NE,51,0.0,1.0,95,0.00,,,0.00,Wunderground v.1.15,2013-03-27 10:20:00,
2013-03-27 03:29:00,43.9,42.8,29.82,NE,51,1.0,1.0,96,0.00,,,0.00,Wunderground v.1.15,2013-03-27 10:29:00,
2013-03-27 03:35:00,43.9,42.8,29.82,NE,51,0.0,1.0,96,0.00,,,0.00,Wunderground v.1.15,2013-03-27 10:35:00,
2013-03-27 03:45:00,43.6,42.5,29.82,NE,51,0.0,2.0,96,0.00,,,0.00,Wunderground v.1.15,2013-03-27 10:45:00,
2013-03-27 03:55:00,43.2,42.1,29.82,NE,51,0.0,2.0,96,0.00,,,0.00,Wunderground v.1.15,2013-03-27 10:55:00,
2013-03-27 04:05:00,43.1,42.0,29.82,NE,51,0.0,2.0,96,0.00,,,0.00,Wunderground v.1.15,2013-03-27 11:05:00,
2013-03-27 04:14:00,43.6,42.5,29.82,NE,51,0.0,2.0,96,0.00,,,0.00,Wunderground v.1.15,2013-03-27 11:14:00,
2013-03-27 04:25:00,44.5,43.7,29.82,NE,51,0.0,0.0,97,0.00,,,0.00,Wunderground v.1.15,2013-03-27 11:25:00,
2013-03-27 04:35:00,45.1,44.3,29.82,NE,51,0.0,0.0,97,0.00,,,0.00,Wunderground v.1.15,2013-03-27 11:35:00,
2013-03-27 04:45:00,45.7,44.9,29.82,NE,51,0.0,0.0,97,0.00,,,0.00,Wunderground v.1.15,2013-03-27 11:45:00,
2013-03-27 04:54:00,46.0,45.2,29.82,NE,51,0.0,0.0,97,0.00,,,0.00,Wunderground v.1.15,2013-03-27 11:54:00,
2013-03-27 05:00:00,46.1,45.3,29.81,NE,51,0.0,0.0,97,0.00,,,0.00,Wunderground v.1.15,2013-03-27 12:00:00,
2013-03-27 05:09:00,46.2,45.4,29.81,NE,51,0.0,0.0,97,0.00,,,0.00,Wunderground v.1.15,2013-03-27 12:09:00,
2013-03-27 05:15:00,46.2,45.4,29.81,NE,51,0.0,0.0,97,0.00,,,0.00,Wunderground v.1.15,2013-03-27 12:15:00,
2013-03-27 05:25:00,46.2,45.4,29.82,NE,51,0.0,0.0,97,0.00,,,0.00,Wunderground v.1.15,2013-03-27 12:25:00,
2013-03-27 05:35:00,46.4,45.3,29.82,NE,51,0.0,0.0,96,0.00,,,0.00,Wunderground v.1.15,2013-03-27 12:35:00,
2013-03-27 05:44:00,46.2,45.1,29.82,NE,51,0.0,1.0,96,0.00,,,0.00,Wunderground v.1.15,2013-03-27 12:44:00,
2013-03-27 05:50:00,46.2,44.8,29.82,NE,51,0.0,1.0,95,0.00,,,0.00,Wunderground v.1.15,2013-03-27 12:50:00,
2013-03-27 05:59:00,46.1,44.5,29.82,NE,51,0.0,1.0,94,0.00,,,0.00,Wunderground v.1.15,2013-03-27 12:59:00,
2013-03-27 06:05:00,46.1,44.2,29.82,NE,51,0.0,1.0,93,0.00,,,0.00,Wunderground v.1.15,2013-03-27 13:05:00,
2013-03-27 06:15:00,46.2,44.3,29.82,NE,51,0.0,1.0,93,0.00,,,0.00,Wunderground v.1.15,2013-03-27 13:15:00,
2013-03-27 06:25:00,46.4,44.5,29.83,NE,51,0.0,0.0,93,0.00,,,0.00,Wunderground v.1.15,2013-03-27 13:25:00,
2013-03-27 06:35:00,46.5,44.3,29.83,NE,51,0.0,0.0,92,0.00,,,0.00,Wunderground v.1.15,2013-03-27 13:35:00,
2013-03-27 06:44:00,46.8,44.6,29.83,NE,51,0.0,0.0,92,0.00,,,0.00,Wunderground v.1.15,2013-03-27 13:44:00,
2013-03-27 06:50:00,47.0,44.8,29.83,NE,51,0.0,0.0,92,0.00,,,0.00,Wunderground v.1.15,2013-03-27 13:50:00,
2013-03-27 06:59:00,47.3,45.1,29.83,NE,51,0.0,0.0,92,0.00,,,0.00,Wunderground v.1.15,2013-03-27 13:59:00,
2013-03-27 07:05:00,47.4,45.2,29.83,NE,51,0.0,0.0,92,0.00,,,0.00,Wunderground v.1.15,2013-03-27 14:05:00,
2013-03-27 07:14:00,47.6,45.1,29.83,NE,51,0.0,0.0,91,0.00,,,0.00,Wunderground v.1.15,2013-03-27 14:14:00,
2013-03-27 07:20:00,47.6,45.1,29.83,NE,51,0.0,0.0,91,0.00,,,0.00,Wunderground v.1.15,2013-03-27 14:20:00,
2013-03-27 07:30:00,47.7,44.9,29.84,NE,51,0.0,0.0,90,0.00,,,0.00,Wunderground v.1.15,2013-03-27 14:30:00,
2013-03-27 07:39:00,47.9,45.1,29.84,NE,51,0.0,0.0,90,0.00,,,0.00,Wunderground v.1.15,2013-03-27 14:39:00,
2013-03-27 07:45:00,48.0,45.2,29.85,NE,51,0.0,0.0,90,0.00,,,0.00,Wunderground v.1.15,2013-03-27 14:45:00,
2013-03-27 07:55:00,48.5,46.0,29.85,NE,51,0.0,0.0,91,0.00,,,0.00,Wunderground v.1.15,2013-03-27 14:55:00,
2013-03-27 08:04:00,48.8,45.7,29.85,NE,51,0.0,0.0,89,0.00,,,0.00,Wunderground v.1.15,2013-03-27 15:04:00,
2013-03-27 08:10:00,48.8,45.7,29.85,NE,51,0.0,1.0,89,0.00,,,0.00,Wunderground v.1.15,2013-03-27 15:10:00,
2013-03-27 08:20:00,48.9,45.2,29.85,NE,51,0.0,2.0,87,0.00,,,0.00,Wunderground v.1.15,2013-03-27 15:20:00,
2013-03-27 08:29:00,49.4,45.7,29.85,NE,51,0.0,2.0,87,0.00,,,0.00,Wunderground v.1.15,2013-03-27 15:29:00,
2013-03-27 08:35:00,49.8,46.1,29.85,NE,51,0.0,2.0,87,0.00,,,0.00,Wunderground v.1.15,2013-03-27 15:35:00,
2013-03-27 08:45:00,50.4,45.7,29.85,NE,51,0.0,2.0,84,0.00,,,0.00,Wunderground v.1.15,2013-03-27 15:45:00,
2013-03-27 08:55:00,51.0,46.6,29.85,NE,51,0.0,2.0,85,0.00,,,0.00,Wunderground v.1.15,2013-03-27 15:55:00,
2013-03-27 09:04:00,51.7,48.0,29.85,NE,51,0.0,2.0,87,0.00,,,0.00,Wunderground v.1.15,2013-03-27 16:04:00,
2013-03-27 09:10:00,52.2,48.8,29.86,NE,51,0.0,2.0,88,0.00,,,0.00,Wunderground v.1.15,2013-03-27 16:10:00,
2013-03-27 09:20:00,53.2,49.4,29.86,NE,51,0.0,2.0,87,0.00,,,0.00,Wunderground v.1.15,2013-03-27 16:20:00,
2013-03-27 09:29:00,54.7,50.3,29.86,NE,51,0.0,2.0,85,0.00,,,0.00,Wunderground v.1.15,2013-03-27 16:29:00,
2013-03-27 09:35:00,56.0,50.6,29.86,NE,52,0.0,2.0,82,0.00,,,0.00,Wunderground v.1.15,2013-03-27 16:35:00,
2013-03-27 09:45:00,57.2,49.3,29.85,NE,52,1.0,2.0,75,0.00,,,0.00,Wunderground v.1.15,2013-03-27 16:45:00,
2013-03-27 09:54:00,57.6,50.1,29.85,NE,51,1.0,2.0,76,0.00,,,0.00,Wunderground v.1.15,2013-03-27 16:54:00,
2013-03-27 10:00:00,58.4,49.8,29.85,NE,40,1.0,2.0,73,0.00,,,0.00,Wunderground v.1.15,2013-03-27 17:00:00,
2013-03-27 10:10:00,59.2,49.0,29.85,NE,40,1.0,2.0,69,0.00,,,0.00,Wunderground v.1.15,2013-03-27 17:10:00,
2013-03-27 10:19:00,59.9,49.3,29.85,WNW,296,2.0,2.0,68,0.00,,,0.00,Wunderground v.1.15,2013-03-27 17:19:00,
2013-03-27 10:25:00,60.1,49.5,29.85,NNW,328,2.0,3.0,68,0.00,,,0.00,Wunderground v.1.15,2013-03-27 17:25:00,
2013-03-27 10:35:00,60.7,49.7,29.85,NNW,328,1.0,3.0,67,0.00,,,0.00,Wunderground v.1.15,2013-03-27 17:35:00,
2013-03-27 10:44:00,60.1,49.9,29.86,NNW,328,1.0,6.0,69,0.00,,,0.00,Wunderground v.1.15,2013-03-27 17:44:00,
2013-03-27 10:50:00,59.9,48.9,29.86,NNW,328,1.0,1.0,67,0.00,,,0.00,Wunderground v.1.15,2013-03-27 17:50:00,
2013-03-27 11:00:00,60.2,49.6,29.86,NNW,335,1.0,6.0,68,0.00,,,0.00,Wunderground v.1.15,2013-03-27 18:00:00,
2013-03-27 11:09:00,60.5,50.3,29.86,ENE,71,1.0,6.0,69,0.00,,,0.00,Wunderground v.1.15,2013-03-27 18:09:00,
2013-03-27 11:15:00,60.7,49.7,29.86,ENE,76,1.0,6.0,67,0.00,,,0.00,Wunderground v.1.15,2013-03-27 18:15:00,
2013-03-27 11:24:00,60.7,50.9,29.86,ENE,76,2.0,3.0,70,0.00,,,0.00,Wunderground v.1.15,2013-03-27 18:24:00,
2013-03-27 11:30:00,60.9,50.3,29.86,ESE,104,2.0,3.0,68,0.00,,,0.00,Wunderground v.1.15,2013-03-27 18:30:00,
2013-03-27 11:40:00,60.5,49.9,29.86,ESE,123,2.0,2.0,68,0.00,,,0.00,Wunderground v.1.15,2013-03-27 18:40:00,
2013-03-27 11:49:00,60.9,50.7,29.86,ESE,123,2.0,7.0,69,0.00,,,0.00,Wunderground v.1.15,2013-03-27 18:49:00,
2013-03-27 11:55:00,61.2,50.6,29.86,ESE,110,2.0,7.0,68,0.00,,,0.00,Wunderground v.1.15,2013-03-27 18:55:00,
2013-03-27 12:04:00,61.2,50.9,29.86,ESE,109,2.0,7.0,69,0.00,,,0.00,Wunderground v.1.15,2013-03-27 19:04:00,
2013-03-27 12:10:00,61.3,50.2,29.86,ESE,109,1.0,7.0,67,0.00,,,0.00,Wunderground v.1.15,2013-03-27 19:10:00,
2013-03-27 12:19:00,61.6,50.9,29.86,ESE,109,1.0,5.0,68,0.00,,,0.00,Wunderground v.1.15,2013-03-27 19:19:00,
2013-03-27 12:25:00,61.8,51.1,29.86,ESE,109,2.0,5.0,68,0.00,,,0.00,Wunderground v.1.15,2013-03-27 19:25:00,
2013-03-27 12:35:00,62.1,50.6,29.86,ENE,76,2.0,5.0,66,0.00,,,0.00,Wunderground v.1.15,2013-03-27 19:35:00,
2013-03-27 12:44:00,62.1,51.0,29.86,ESE,109,2.0,5.0,67,0.00,,,0.00,Wunderground v.1.15,2013-03-27 19:44:00,
2013-03-27 12:50:00,62.0,50.5,29.86,ESE,109,2.0,5.0,66,0.00,,,0.00,Wunderground v.1.15,2013-03-27 19:50:00,
2013-03-27 12:59:00,61.6,51.3,29.86,ESE,123,2.0,2.0,69,0.00,,,0.00,Wunderground v.1.15,2013-03-27 19:59:00,
2013-03-27 13:05:00,61.6,50.1,29.86,East,97,2.0,5.0,66,0.00,,,0.00,Wunderground v.1.15,2013-03-27 20:05:00,
2013-03-27 13:15:00,61.3,50.2,29.86,ESE,103,1.0,5.0,67,0.00,,,0.00,Wunderground v.1.15,2013-03-27 20:15:00,
2013-03-27 13:25:00,61.6,51.3,29.86,East,93,1.0,5.0,69,0.00,,,0.00,Wunderground v.1.15,2013-03-27 20:25:00,
2013-03-27 13:34:00,61.5,50.8,29.86,East,79,1.0,5.0,68,0.00,,,0.00,Wunderground v.1.15,2013-03-27 20:34:00,
2013-03-27 13:40:00,61.5,50.0,29.86,East,93,1.0,5.0,66,0.00,,,0.00,Wunderground v.1.15,2013-03-27 20:40:00,
2013-03-27 13:49:00,61.5,51.2,29.86,ESE,110,2.0,5.0,69,0.00,,,0.00,Wunderground v.1.15,2013-03-27 20:49:00,
2013-03-27 13:55:00,61.6,50.9,29.86,ESE,106,2.0,5.0,68,0.00,,,0.00,Wunderground v.1.15,2013-03-27 20:55:00,
2013-03-27 14:04:00,62.6,51.5,29.86,ESE,103,2.0,5.0,67,0.00,,,0.00,Wunderground v.1.15,2013-03-27 21:04:00,
2013-03-27 14:10:00,63.4,52.2,29.86,ESE,103,1.0,5.0,67,0.00,,,0.00,Wunderground v.1.15,2013-03-27 21:10:00,
2013-03-27 14:19:00,63.9,51.9,29.86,East,93,2.0,7.0,65,0.00,,,0.00,Wunderground v.1.15,2013-03-27 21:19:00,
2013-03-27 14:25:00,63.7,51.7,29.86,East,93,2.0,7.0,65,0.00,,,0.00,Wunderground v.1.15,2013-03-27 21:25:00,
2013-03-27 14:35:00,64.2,51.8,29.86,ESE,110,2.0,7.0,64,0.00,,,0.00,Wunderground v.1.15,2013-03-27 21:35:00,
2013-03-27 14:45:00,63.7,52.1,29.85,SE,124,2.0,7.0,66,0.00,,,0.00,Wunderground v.1.15,2013-03-27 21:45:00,
2013-03-27 14:55:00,62.9,51.8,29.86,ESE,114,1.0,7.0,67,0.00,,,0.00,Wunderground v.1.15,2013-03-27 21:55:00,
2013-03-27 15:04:00,62.6,51.5,29.86,ENE,76,2.0,7.0,67,0.00,,,0.00,Wunderground v.1.15,2013-03-27 22:04:00,
2013-03-27 15:10:00,62.9,52.2,29.86,ENE,76,2.0,2.0,68,0.00,,,0.00,Wunderground v.1.15,2013-03-27 22:10:00,
2013-03-27 15:20:00,63.1,52.4,29.86,SE,124,2.0,7.0,68,0.00,,,0.00,Wunderground v.1.15,2013-03-27 22:20:00,
2013-03-27 15:29:00,63.1,51.6,29.86,ESE,109,2.0,7.0,66,0.00,,,0.00,Wunderground v.1.15,2013-03-27 22:29:00,
2013-03-27 15:39:00,62.6,52.3,29.86,ESE,119,2.0,7.0,69,0.00,,,0.00,Wunderground v.1.15,2013-03-27 22:39:00,
2013-03-27 15:50:00,62.1,52.2,29.86,East,96,2.0,2.0,70,0.00,,,0.00,Wunderground v.1.15,2013-03-27 22:50:00,
2013-03-27 15:59:00,61.8,51.9,29.86,ESE,110,2.0,6.0,70,0.00,,,0.00,Wunderground v.1.15,2013-03-27 22:59:00,
2013-03-27 16:05:00,61.6,51.7,29.86,ESE,104,2.0,6.0,70,0.00,,,0.00,Wunderground v.1.15,2013-03-27 23:05:00,
2013-03-27 16:15:00,61.2,52.1,29.86,SE,134,1.0,6.0,72,0.00,,,0.00,Wunderground v.1.15,2013-03-27 23:15:00,
2013-03-27 16:24:00,60.7,52.4,29.86,SE,138,1.0,6.0,74,0.00,,,0.00,Wunderground v.1.15,2013-03-27 23:24:00,
2013-03-27 16:30:00,60.4,52.1,29.86,SE,138,1.0,6.0,74,0.00,,,0.00,Wunderground v.1.15,2013-03-27 23:30:00,
2013-03-27 16:40:00,59.6,51.7,29.86,SE,138,1.0,6.0,75,0.00,,,0.00,Wunderground v.1.15,2013-03-27 23:40:00,
2013-03-27 16:49:00,59.3,51.7,29.86,SE,126,1.0,5.0,76,0.00,,,0.00,Wunderground v.1.15,2013-03-27 23:49:00,
2013-03-27 16:55:00,59.2,52.0,29.86,SE,126,1.0,5.0,77,0.00,,,0.00,Wunderground v.1.15,2013-03-27 23:55:00,
2013-03-27 17:04:00,58.4,51.9,29.86,SE,126,1.0,5.0,79,0.00,,,0.00,Wunderground v.1.15,2013-03-28 00:04:00,
2013-03-27 17:10:00,58.0,52.2,29.87,SE,126,1.0,5.0,81,0.00,,,0.00,Wunderground v.1.15,2013-03-28 00:10:00,
2013-03-27 17:19:00,57.3,52.5,29.87,SE,126,0.0,5.0,84,0.00,,,0.00,Wunderground v.1.15,2013-03-28 00:19:00,
2013-03-27 17:25:00,57.0,52.5,29.87,SE,126,0.0,5.0,85,0.00,,,0.00,Wunderground v.1.15,2013-03-28 00:25:00,
2013-03-27 17:35:00,56.5,52.4,29.87,SE,124,0.0,5.0,86,0.00,,,0.00,Wunderground v.1.15,2013-03-28 00:35:00,
2013-03-27 17:44:00,56.3,52.5,29.87,SE,124,1.0,5.0,87,0.00,,,0.00,Wunderground v.1.15,2013-03-28 00:44:00,
2013-03-27 17:50:00,56.2,52.4,29.87,SE,124,0.0,3.0,87,0.00,,,0.00,Wunderground v.1.15,2013-03-28 00:50:00,
2013-03-27 17:59:00,56.0,52.2,29.87,SE,124,0.0,3.0,87,0.00,,,0.00,Wunderground v.1.15,2013-03-28 00:59:00,
2013-03-27 18:05:00,55.9,51.8,29.87,SE,124,0.0,3.0,86,0.00,,,0.00,Wunderground v.1.15,2013-03-28 01:05:00,
2013-03-27 18:14:00,55.9,51.8,29.87,SE,124,1.0,3.0,86,0.00,,,0.00,Wunderground v.1.15,2013-03-28 01:14:00,
2013-03-27 18:20:00,55.6,51.8,29.87,SE,124,1.0,2.0,87,0.00,,,0.00,Wunderground v.1.15,2013-03-28 01:20:00,
2013-03-27 18:29:00,55.1,51.3,29.87,SE,124,1.0,2.0,87,0.00,,,0.00,Wunderground v.1.15,2013-03-28 01:29:00,
2013-03-27 18:35:00,54.8,51.3,29.87,SE,124,1.0,2.0,88,0.00,,,0.00,Wunderground v.1.15,2013-03-28 01:35:00,
2013-03-27 18:44:00,54.4,51.2,29.87,SE,124,1.0,5.0,89,0.00,,,0.00,Wunderground v.1.15,2013-03-28 01:44:00,
2013-03-27 18:49:00,54.1,51.2,29.87,SE,124,0.0,5.0,90,0.00,,,0.00,Wunderground v.1.15,2013-03-28 01:49:00,
2013-03-27 19:00:00,53.8,51.2,29.88,SE,124,1.0,1.0,91,0.00,,,0.00,Wunderground v.1.15,2013-03-28 02:00:00,
2013-03-27 19:09:00,53.6,51.0,29.88,SE,124,0.0,5.0,91,0.00,,,0.00,Wunderground v.1.15,2013-03-28 02:09:00,
2013-03-27 19:15:00,53.5,50.9,29.88,SE,124,0.0,5.0,91,0.00,,,0.00,Wunderground v.1.15,2013-03-28 02:15:00,
2013-03-27 19:24:00,53.5,51.2,29.88,SE,124,0.0,2.0,92,0.00,,,0.00,Wunderground v.1.15,2013-03-28 02:24:00,
2013-03-27 19:30:00,53.3,51.0,29.88,SE,124,1.0,1.0,92,0.00,,,0.00,Wunderground v.1.15,2013-03-28 02:30:00,
2013-03-27 19:39:00,53.2,50.9,29.88,SE,124,0.0,2.0,92,0.00,,,0.00,Wunderground v.1.15,2013-03-28 02:39:00,
2013-03-27 19:44:00,53.1,50.8,29.88,SE,124,1.0,2.0,92,0.00,,,0.00,Wunderground v.1.15,2013-03-28 02:44:00,
2013-03-27 19:55:00,52.9,50.6,29.88,SE,124,0.0,2.0,92,0.00,,,0.00,Wunderground v.1.15,2013-03-28 02:55:00,
2013-03-27 20:04:00,52.8,50.5,29.88,SE,124,0.0,2.0,92,0.00,,,0.00,Wunderground v.1.15,2013-03-28 03:04:00,
2013-03-27 20:10:00,52.8,50.5,29.88,SE,124,1.0,1.0,92,0.00,,,0.00,Wunderground v.1.15,2013-03-28 03:10:00,
2013-03-27 20:19:00,52.6,50.3,29.88,SE,124,0.0,2.0,92,0.00,,,0.00,Wunderground v.1.15,2013-03-28 03:19:00,
2013-03-27 20:24:00,52.6,50.3,29.88,SE,124,1.0,2.0,92,0.00,,,0.00,Wunderground v.1.15,2013-03-28 03:24:00,
2013-03-27 20:35:00,52.5,50.2,29.88,SE,124,0.0,2.0,92,0.00,,,0.00,Wunderground v.1.15,2013-03-28 03:35:00,
2013-03-27 20:44:00,52.5,50.2,29.88,SE,124,0.0,2.0,92,0.00,,,0.00,Wunderground v.1.15,2013-03-28 03:44:00,
2013-03-27 20:50:00,52.5,50.2,29.88,SE,124,0.0,2.0,92,0.00,,,0.00,Wunderground v.1.15,2013-03-28 03:50:00,
2013-03-27 20:59:00,52.5,50.2,29.88,SE,124,0.0,2.0,92,0.00,,,0.00,Wunderground v.1.15,2013-03-28 03:59:00,
2013-03-27 21:05:00,52.5,50.5,29.88,SE,124,0.0,2.0,93,0.00,,,0.00,Wunderground v.1.15,2013-03-28 04:05:00,
2013-03-27 21:09:00,52.5,50.5,29.88,SE,124,0.0,2.0,93,0.00,,,0.00,Wunderground v.1.15,2013-03-28 04:09:00,
2013-03-27 21:14:00,52.5,50.5,29.89,SE,124,0.0,2.0,93,0.00,,,0.00,Wunderground v.1.15,2013-03-28 04:14:00,
2013-03-27 21:20:00,52.5,50.5,29.89,SE,124,0.0,2.0,93,0.00,,,0.00,Wunderground v.1.15,2013-03-28 04:20:00,
2013-03-27 21:30:00,52.5,50.8,29.88,SE,124,0.0,2.0,94,0.00,,,0.00,Wunderground v.1.15,2013-03-28 04:30:00,
2013-03-27 21:39:00,52.3,50.6,29.88,SE,124,0.0,2.0,94,0.00,,,0.00,Wunderground v.1.15,2013-03-28 04:39:00,
2013-03-27 21:45:00,52.3,50.9,29.89,SE,124,0.0,2.0,95,0.00,,,0.00,Wunderground v.1.15,2013-03-28 04:45:00,
2013-03-27 21:54:00,52.3,51.2,29.89,ESE,123,0.0,2.0,96,0.00,,,0.00,Wunderground v.1.15,2013-03-28 04:54:00,
2013-03-27 22:00:00,52.3,51.2,29.89,ESE,123,0.0,2.0,96,0.00,,,0.00,Wunderground v.1.15,2013-03-28 05:00:00,
2013-03-27 22:09:00,52.3,51.2,29.89,ESE,123,0.0,2.0,96,0.00,,,0.00,Wunderground v.1.15,2013-03-28 05:09:00,
2013-03-27 22:15:00,52.2,51.1,29.89,ESE,123,0.0,3.0,96,0.00,,,0.00,Wunderground v.1.15,2013-03-28 05:15:00,
2013-03-27 22:24:00,52.2,51.1,29.89,ESE,123,0.0,3.0,96,0.00,,,0.00,Wunderground v.1.15,2013-03-28 05:24:00,
2013-03-27 22:30:00,52.2,51.1,29.89,ESE,123,0.0,3.0,96,0.00,,,0.00,Wunderground v.1.15,2013-03-28 05:30:00,
2013-03-27 22:39:00,52.0,50.9,29.89,ESE,123,0.0,3.0,96,0.00,,,0.00,Wunderground v.1.15,2013-03-28 05:39:00,
2013-03-27 22:45:00,52.0,50.9,29.89,ESE,123,0.0,3.0,96,0.00,,,0.00,Wunderground v.1.15,2013-03-28 05:45:00,
2013-03-27 22:55:00,52.0,51.2,29.89,ESE,123,0.0,2.0,97,0.00,,,0.00,Wunderground v.1.15,2013-03-28 05:55:00,
2013-03-27 23:04:00,52.0,51.2,29.89,ESE,123,0.0,2.0,97,0.00,,,0.01,Wunderground v.1.15,2013-03-28 06:04:00,
2013-03-27 23:10:00,52.0,51.2,29.89,ESE,123,0.0,2.0,97,0.00,,,0.01,Wunderground v.1.15,2013-03-28 06:10:00,
2013-03-27 23:19:00,52.0,51.2,29.89,ESE,123,0.0,5.0,97,0.00,,,0.01,Wunderground v.1.15,2013-03-28 06:19:00,
2013-03-27 23:25:00,51.9,51.1,29.89,ESE,123,1.0,5.0,97,0.00,,,0.01,Wunderground v.1.15,2013-03-28 06:25:00,
2013-03-27 23:35:00,51.9,51.1,29.89,ESE,123,0.0,5.0,97,0.00,,,0.01,Wunderground v.1.15,2013-03-28 06:35:00,
2013-03-27 23:44:00,51.9,51.1,29.89,ESE,114,0.0,5.0,97,0.00,,,0.01,Wunderground v.1.15,2013-03-28 06:44:00,
2013-03-27 23:50:00,51.7,50.9,29.89,ESE,114,1.0,1.0,97,0.00,,,0.01,Wunderground v.1.15,2013-03-28 06:50:00,